Time;durP1;ratioP1;P1;durP2;ratioP2;P2;SDS_P1;SDS_P2;PMS_P1;PMS_P2;Temp;Humidity;BMP_temperature;BMP_pressure;BME280_temperature;BME280_humidity;BME280_pressure;Samples;Min_cycle;Max_cycle;Signal;HPM_P1;HPM_P2
2023/01/06 00:01:54;;;;;;;;;;;;;;;-9.21;60.20;95962.66;6300073;28;19924;-67
2023/01/06 00:05:00;;;;;;;;;;;;;;;-9.14;59.48;95965.19;6299919;28;20404;-67
2023/01/06 00:08:01;;;;;;;;;;;;;;;-9.22;60.08;95966.06;6299843;28;19947;-68
2023/01/06 00:11:09;;;;;;;;;;;;;;;-9.30;59.87;95958.44;6299837;28;19933;-68
2023/01/06 00:14:10;;;;;;;;;;;;;;;-9.33;60.54;95958.44;6299059;28;19920;-67
2023/01/06 00:17:11;;;;;;;;;;;;;;;-9.36;60.64;95969.50;6265211;28;20017;-68
2023/01/06 00:20:15;;;;;;;;;;;;;;;-9.33;60.24;95944.00;6299533;28;19925;-67
2023/01/06 00:23:18;;;;;;;;;;;;;;;-9.16;59.41;95946.50;6298302;28;19932;-67
2023/01/06 00:26:22;;;;;;;;;;;;;;;-9.28;59.18;95949.09;6299349;28;20309;-67
2023/01/06 00:29:26;;;;;;;;;;;;;;;-9.45;59.85;95945.72;6299314;28;19932;-67
2023/01/06 00:32:27;;;;;;;;;;;;;;;-9.60;60.01;95960.16;6299401;28;20310;-67
2023/01/06 00:35:28;;;;;;;;;;;;;;;-9.64;60.55;95965.28;6281561;28;20640;-67
2023/01/06 00:38:35;;;;;;;;;;;;;;;-9.73;60.86;95969.53;6298403;28;20313;-68
2023/01/06 00:44:55;;;;;;;;;;;;;;;-9.87;61.42;95981.41;6299130;28;19928;-68
2023/01/06 00:47:58;;;;;;;;;;;;;;;-9.88;61.20;95984.78;6298907;28;19931;-67
2023/01/06 00:51:00;;;;;;;;;;;;;;;-9.99;61.38;95972.09;6298938;28;20421;-67
2023/01/06 00:54:01;;;;;;;;;;;;;;;-10.06;61.27;95977.16;6298572;28;19925;-68
2023/01/06 00:57:04;;;;;;;;;;;;;;;-10.18;61.33;95980.56;6298640;28;20082;-68
2023/01/06 01:00:08;;;;;;;;;;;;;;;-10.13;61.71;95978.88;6298540;28;20305;-67
2023/01/06 01:03:11;;;;;;;;;;;;;;;-10.27;61.52;95988.22;6298636;28;19924;-67
2023/01/06 01:06:12;;;;;;;;;;;;;;;-10.52;62.28;95985.59;6298599;28;19924;-67
2023/01/06 01:09:20;;;;;;;;;;;;;;;-10.51;62.09;95987.28;6280558;28;19944;-67
2023/01/06 01:12:26;;;;;;;;;;;;;;;-10.71;62.49;95994.84;6298290;28;19963;-68
2023/01/06 01:15:30;;;;;;;;;;;;;;;-10.97;62.60;95984.59;6298275;28;19970;-67
2023/01/06 01:18:31;;;;;;;;;;;;;;;-10.79;62.13;95985.50;6297274;28;19924;-67
2023/01/06 01:21:37;;;;;;;;;;;;;;;-10.90;62.20;95983.78;6298071;28;19924;-68
2023/01/06 01:24:43;;;;;;;;;;;;;;;-10.86;62.00;95998.19;6298137;28;20401;-68
2023/01/06 01:27:44;;;;;;;;;;;;;;;-11.07;61.96;95982.84;6298039;28;19931;-67
2023/01/06 01:30:57;;;;;;;;;;;;;;;-11.07;62.14;95987.94;6297922;28;19924;-67
2023/01/06 01:34:01;;;;;;;;;;;;;;;-11.45;62.35;95988.59;6297828;28;19924;-68
2023/01/06 01:37:04;;;;;;;;;;;;;;;-11.54;62.83;95996.16;6297599;28;19925;-67
2023/01/06 01:40:05;;;;;;;;;;;;;;;-11.51;63.50;95998.69;6296421;28;20512;-67
2023/01/06 01:43:10;;;;;;;;;;;;;;;-11.14;63.09;96001.47;6297647;28;19958;-67
2023/01/06 01:46:34;;;;;;;;;;;;;;;-11.37;63.33;95994.56;6297477;28;19924;-66
2023/01/06 01:49:39;;;;;;;;;;;;;;;-11.37;63.77;95992.03;6297563;28;19925;-67
2023/01/06 01:52:45;;;;;;;;;;;;;;;-11.34;63.61;95989.50;6297236;28;20393;-68
2023/01/06 01:55:46;;;;;;;;;;;;;;;-11.34;63.46;95992.03;6297303;28;20025;-68
2023/01/06 01:58:56;;;;;;;;;;;;;;;-11.49;63.59;95991.06;6297100;28;20508;-69
2023/01/06 02:02:00;;;;;;;;;;;;;;;-11.27;63.60;95992.06;6297269;28;19924;-68
2023/01/06 02:05:05;;;;;;;;;;;;;;;-11.38;63.90;95990.34;6297129;28;19920;-68
2023/01/06 02:08:26;;;;;;;;;;;;;;;-11.03;63.10;95982.03;6296904;28;19932;-67
2023/01/06 02:11:28;;;;;;;;;;;;;;;-10.90;62.64;95983.78;6279305;28;20025;-68
2023/01/06 02:14:29;;;;;;;;;;;;;;;-10.97;62.26;95976.97;6296064;28;19947;-68
2023/01/06 02:17:48;;;;;;;;;;;;;;;-10.97;62.68;95976.97;6296902;28;19928;-67
2023/01/06 02:20:55;;;;;;;;;;;;;;;-10.92;62.35;95977.84;6296696;28;19924;-68
2023/01/06 02:24:23;;;;;;;;;;;;;;;-10.90;62.73;95968.56;6296642;28;19924;-68
2023/01/06 02:27:35;;;;;;;;;;;;;;;-11.05;63.09;95965.94;6278627;28;19931;-67
2023/01/06 02:30:45;;;;;;;;;;;;;;;-11.36;63.53;95973.41;6295937;28;19924;-68
2023/01/06 02:34:04;;;;;;;;;;;;;;;-11.14;63.76;95959.13;6296768;28;20023;-68
2023/01/06 02:37:20;;;;;;;;;;;;;;;-11.07;63.83;95970.16;6296323;28;19929;-67
2023/01/06 02:40:39;;;;;;;;;;;;;;;-11.13;64.06;95970.97;6296279;28;20294;-68
2023/01/06 02:43:45;;;;;;;;;;;;;;;-11.21;64.52;95966.69;6296397;28;20382;-68
2023/01/06 02:46:58;;;;;;;;;;;;;;;-10.96;64.13;95973.59;6296273;28;19924;-68
2023/01/06 02:50:05;;;;;;;;;;;;;;;-10.81;63.73;95979.56;6277877;28;20447;-67
2023/01/06 02:53:12;;;;;;;;;;;;;;;-10.77;63.72;95971.13;6278689;28;19948;-67
2023/01/06 02:56:14;;;;;;;;;;;;;;;-10.69;63.64;95972.00;6296151;28;20398;-68
2023/01/06 02:59:24;;;;;;;;;;;;;;;-10.64;63.35;95970.31;6295916;28;19936;-69
2023/01/06 03:02:31;;;;;;;;;;;;;;;-10.97;64.24;95971.91;6295745;28;20409;-68
2023/01/06 03:05:35;;;;;;;;;;;;;;;-10.86;64.34;95980.41;6294900;28;19989;-67
2023/01/06 03:08:39;;;;;;;;;;;;;;;-10.85;64.50;95969.38;6296111;28;19924;-67
2023/01/06 03:11:42;;;;;;;;;;;;;;;-10.72;64.25;95961.81;6295924;28;19927;-67
2023/01/06 03:14:49;;;;;;;;;;;;;;;-10.47;63.61;95968.66;6294828;28;19931;-68
2023/01/06 03:17:52;;;;;;;;;;;;;;;-10.31;63.08;95968.69;6295838;28;19921;-68
2023/01/06 03:20:58;;;;;;;;;;;;;;;-10.50;63.25;95968.66;6295952;28;20408;-67
2023/01/06 03:24:03;;;;;;;;;;;;;;;-10.77;63.57;95966.03;6294812;28;19924;-68
2023/01/06 03:27:04;;;;;;;;;;;;;;;-10.76;63.69;95965.19;6295816;28;19924;-68
2023/01/06 03:30:08;;;;;;;;;;;;;;;-10.65;63.02;95958.44;6294305;28;20020;-68
2023/01/06 03:33:20;;;;;;;;;;;;;;;-10.74;63.09;95968.59;6295681;28;19924;-68
2023/01/06 03:36:29;;;;;;;;;;;;;;;-10.72;63.34;95964.38;6295828;28;19924;-67
2023/01/06 03:39:37;;;;;;;;;;;;;;;-10.57;62.91;95961.84;6294520;28;20309;-68
2023/01/06 03:46:18;;;;;;;;;;;;;;;-10.79;63.49;95960.94;6295508;28;19997;-68
2023/01/06 03:49:41;;;;;;;;;;;;;;;-10.68;63.25;95968.59;6294099;28;19928;-66
2023/01/06 03:52:47;;;;;;;;;;;;;;;-10.55;63.43;95965.25;6294285;28;19932;-68
2023/01/06 03:55:52;;;;;;;;;;;;;;;-10.27;62.34;95975.50;6295195;28;19924;-67
2023/01/06 03:58:57;;;;;;;;;;;;;;;-10.34;61.84;95976.31;6294243;28;19956;-68
2023/01/06 04:01:58;;;;;;;;;;;;;;;-10.72;62.46;95970.28;6294366;28;20026;-69
2023/01/06 04:05:18;;;;;;;;;;;;;;;-10.71;62.54;95973.69;6277853;28;19933;-68
2023/01/06 04:08:19;;;;;;;;;;;;;;;-10.87;63.57;95971.09;6294237;28;19924;-68
2023/01/06 04:14:40;;;;;;;;;;;;;;;-11.11;63.69;95963.38;6298158;28;20436;-68
2023/01/06 04:17:45;;;;;;;;;;;;;;;-11.03;64.13;95961.72;6298962;28;19943;-67
2023/01/06 04:20:46;;;;;;;;;;;;;;;-10.86;64.37;95959.25;6298552;28;19982;-68
2023/01/06 04:23:50;;;;;;;;;;;;;;;-10.74;63.94;95963.50;6299335;28;19977;-67
2023/01/06 04:26:51;;;;;;;;;;;;;;;-10.69;63.64;95972.00;6298834;28;19928;-67
2023/01/06 04:29:54;;;;;;;;;;;;;;;-10.87;64.29;95968.56;6298116;28;20417;-68
2023/01/06 04:32:58;;;;;;;;;;;;;;;-10.63;64.27;95972.00;6299275;28;19924;-68
2023/01/06 04:35:59;;;;;;;;;;;;;;;-10.57;64.31;95977.09;6297436;28;19920;-67
2023/01/06 04:39:01;;;;;;;;;;;;;;;-10.40;64.03;95979.69;6298030;28;20077;-68
2023/01/06 04:42:04;;;;;;;;;;;;;;;-10.52;63.94;95970.34;6298904;28;20382;-68
2023/01/06 04:45:07;;;;;;;;;;;;;;;-10.58;64.24;95972.03;6298831;28;19924;-68
2023/01/06 04:48:11;;;;;;;;;;;;;;;-10.59;64.38;95972.88;6298077;28;19931;-68
2023/01/06 04:51:15;;;;;;;;;;;;;;;-10.49;64.57;95964.44;6297815;28;19925;-68
2023/01/06 04:54:18;;;;;;;;;;;;;;;-10.41;64.72;95973.75;6297506;28;20297;-68
2023/01/06 04:57:22;;;;;;;;;;;;;;;-10.43;64.36;95974.59;6298818;28;19924;-69
2023/01/06 05:00:25;;;;;;;;;;;;;;;-10.33;64.28;95972.91;6298594;28;19928;-67
2023/01/06 05:03:26;;;;;;;;;;;;;;;-10.47;64.60;95963.59;6297786;28;20313;-69
2023/01/06 05:06:27;;;;;;;;;;;;;;;-10.35;64.17;95967.00;6292053;28;19931;-68
2023/01/06 05:09:30;;;;;;;;;;;;;;;-10.26;63.98;95960.19;6297520;28;19973;-68
2023/01/06 05:12:37;;;;;;;;;;;;;;;-10.35;64.45;95974.63;6298129;28;20333;-69
2023/01/06 05:15:38;;;;;;;;;;;;;;;-10.15;64.50;95960.19;6297559;28;19931;-68
2023/01/06 05:18:42;;;;;;;;;;;;;;;-9.97;63.85;95960.19;6279497;28;19925;-67
2023/01/06 05:21:45;;;;;;;;;;;;;;;-9.94;63.48;95960.19;6298005;28;20360;-67
2023/01/06 05:24:47;;;;;;;;;;;;;;;-9.69;63.37;95967.81;6296499;28;19952;-68
2023/01/06 05:27:48;;;;;;;;;;;;;;;-9.62;62.96;95966.13;6296917;28;19931;-68
2023/01/06 05:30:48;;;;;;;;;;;;;;;-9.78;63.62;95965.28;6296465;28;19925;-69
2023/01/06 05:33:55;;;;;;;;;;;;;;;-9.61;63.46;95963.59;6297696;28;19960;-68
2023/01/06 05:37:02;;;;;;;;;;;;;;;-9.47;62.72;95968.66;6297509;28;19960;-68
2023/01/06 05:40:03;;;;;;;;;;;;;;;-9.41;63.21;95966.09;6297509;28;19924;-68
2023/01/06 05:43:06;;;;;;;;;;;;;;;-9.43;63.29;95966.94;6296844;28;19924;-69
2023/01/06 05:46:08;;;;;;;;;;;;;;;-9.15;63.34;95968.56;6296531;28;19932;-69
2023/01/06 05:49:09;;;;;;;;;;;;;;;-9.13;62.93;95966.88;6295688;28;20313;-67
2023/01/06 05:52:10;;;;;;;;;;;;;;;-9.05;62.78;95972.81;6296370;28;19932;-68
2023/01/06 05:55:16;;;;;;;;;;;;;;;-8.94;62.74;95974.47;6297033;28;19928;-68
2023/01/06 05:58:19;;;;;;;;;;;;;;;-8.67;61.73;95969.25;6296412;28;19925;-67
2023/01/06 06:01:24;;;;;;;;;;;;;;;-8.77;61.91;95975.25;6296179;28;19931;-68
2023/01/06 06:04:27;;;;;;;;;;;;;;;-8.62;61.30;95964.13;6278843;28;19925;-67
2023/01/06 06:07:33;;;;;;;;;;;;;;;-8.49;61.07;95970.00;6297220;28;19925;-68
2023/01/06 06:10:37;;;;;;;;;;;;;;;-8.36;61.04;95971.63;6279386;28;19929;-68
2023/01/06 06:13:51;;;;;;;;;;;;;;;-8.42;61.32;95971.69;6296545;28;19924;-68
2023/01/06 06:16:58;;;;;;;;;;;;;;;-8.23;60.84;95977.50;6278929;28;19934;-68
2023/01/06 06:20:02;;;;;;;;;;;;;;;-8.13;60.59;95974.03;6296370;28;19963;-68
2023/01/06 06:23:06;;;;;;;;;;;;;;;-8.20;60.37;95983.44;6295378;28;19924;-68
2023/01/06 06:26:12;;;;;;;;;;;;;;;-8.16;61.35;95981.69;6296240;28;20306;-68
2023/01/06 06:29:16;;;;;;;;;;;;;;;-8.05;61.10;95987.59;6296259;28;19928;-68
2023/01/06 06:32:20;;;;;;;;;;;;;;;-7.89;61.02;95982.38;6296175;28;19931;-68
2023/01/06 06:35:31;;;;;;;;;;;;;;;-7.93;61.35;95982.38;6295363;28;19967;-68
2023/01/06 06:38:36;;;;;;;;;;;;;;;-7.87;61.67;95986.59;6296056;28;19929;-69
2023/01/06 06:41:40;;;;;;;;;;;;;;;-7.77;62.22;95992.50;6295930;28;20282;-67
2023/01/06 06:44:45;;;;;;;;;;;;;;;-7.52;61.00;95998.28;6296115;28;19924;-67
2023/01/06 06:47:48;;;;;;;;;;;;;;;-7.46;61.37;96003.31;6296210;28;19990;-69
2023/01/06 06:50:58;;;;;;;;;;;;;;;-7.16;60.07;95997.09;6296018;28;19925;-67
2023/01/06 06:54:02;;;;;;;;;;;;;;;-7.18;60.12;96009.03;6295037;28;19936;-69
2023/01/06 06:57:08;;;;;;;;;;;;;;;-7.01;59.10;96012.25;6278624;28;19928;-68
2023/01/06 07:00:13;;;;;;;;;;;;;;;-7.05;59.53;96009.75;6295200;28;20405;-67
2023/01/06 07:03:14;;;;;;;;;;;;;;;-6.93;58.97;96013.91;6295739;28;19930;-68
2023/01/06 07:06:20;;;;;;;;;;;;;;;-6.84;58.32;96004.41;6295741;28;20020;-67
2023/01/06 07:09:26;;;;;;;;;;;;;;;-7.07;59.31;96017.44;6295636;28;20002;-69
2023/01/06 07:12:29;;;;;;;;;;;;;;;-7.03;59.24;96002.91;6295687;28;20035;-68
2023/01/06 07:15:36;;;;;;;;;;;;;;;-7.11;59.21;95995.31;6295684;28;19929;-67
2023/01/06 07:18:39;;;;;;;;;;;;;;;-7.18;59.47;95991.13;6296067;28;19924;-67
2023/01/06 07:21:45;;;;;;;;;;;;;;;-7.31;59.69;95992.94;6295594;28;19924;-68
2023/01/06 07:24:46;;;;;;;;;;;;;;;-7.29;61.14;95990.38;6294757;28;19935;-68
2023/01/06 07:27:53;;;;;;;;;;;;;;;-7.33;60.85;95983.59;6295591;28;19932;-68
2023/01/06 07:30:56;;;;;;;;;;;;;;;-7.24;61.70;95981.81;6295403;28;19924;-69
2023/01/06 07:34:00;;;;;;;;;;;;;;;-7.01;61.35;95978.19;6295322;28;19924;-68
2023/01/06 07:37:01;;;;;;;;;;;;;;;-7.02;62.14;95974.78;6295316;28;19924;-67
2023/01/06 07:40:06;;;;;;;;;;;;;;;-6.84;62.23;95973.72;6295368;28;19925;-68
2023/01/06 07:43:08;;;;;;;;;;;;;;;-6.74;63.03;95958.25;6295330;28;20019;-68
2023/01/06 07:46:14;;;;;;;;;;;;;;;-6.64;61.93;95954.72;6295122;28;20338;-68
2023/01/06 07:49:18;;;;;;;;;;;;;;;-6.80;61.94;95944.66;6299706;28;19931;-68
2023/01/06 07:52:19;;;;;;;;;;;;;;;-6.63;62.52;95956.41;6299956;28;19924;-67
2023/01/06 07:55:20;;;;;;;;;;;;;;;-6.38;61.30;95956.94;6323655;28;19928;-68
2023/01/06 07:58:23;;;;;;;;;;;;;;;-6.46;61.18;95954.47;6324657;28;19924;-68
2023/01/06 08:01:26;;;;;;;;;;;;;;;-6.55;61.40;95957.16;6324472;28;20384;-69
2023/01/06 08:04:30;;;;;;;;;;;;;;;-6.50;61.48;95947.72;6324827;28;19930;-68
2023/01/06 08:07:31;;;;;;;;;;;;;;;-6.77;60.99;95948.91;6324707;28;19927;-68
2023/01/06 08:10:37;;;;;;;;;;;;;;;-6.81;61.15;95948.09;6324457;28;19924;-69
2023/01/06 08:13:38;;;;;;;;;;;;;;;-6.96;61.92;95935.50;6324052;28;20026;-68
2023/01/06 08:16:39;;;;;;;;;;;;;;;-7.03;61.30;95932.16;6324290;28;19920;-68
2023/01/06 08:19:43;;;;;;;;;;;;;;;-7.18;62.00;95928.94;6324543;28;19924;-68
2023/01/06 08:22:49;;;;;;;;;;;;;;;-7.01;61.95;95934.72;6322910;28;20001;-67
2023/01/06 08:26:00;;;;;;;;;;;;;;;-6.94;62.00;95923.53;6324405;28;19924;-68
2023/01/06 08:29:03;;;;;;;;;;;;;;;-6.83;62.41;95919.13;6324372;28;19924;-69
2023/01/06 08:32:06;;;;;;;;;;;;;;;-6.49;62.11;95913.56;6323355;28;19924;-68
2023/01/06 08:35:08;;;;;;;;;;;;;;;-6.39;61.10;95911.75;6324070;28;20009;-67
2023/01/06 08:38:11;;;;;;;;;;;;;;;-6.53;61.01;95905.97;6323573;28;20454;-69
2023/01/06 08:41:15;;;;;;;;;;;;;;;-6.45;60.77;95910.13;6323915;28;19924;-68
2023/01/06 08:48:07;;;;;;;;;;;;;;;-6.46;61.56;95913.53;6324023;28;19924;-68
2023/01/06 08:51:16;;;;;;;;;;;;;;;-6.21;61.19;95900.38;6323785;28;20316;-68
2023/01/06 08:54:23;;;;;;;;;;;;;;;-6.00;61.21;95912.00;6308202;28;20013;-68
2023/01/06 08:57:24;;;;;;;;;;;;;;;-5.80;58.91;95886.91;6297524;28;19924;-68
2023/01/06 09:00:26;;;;;;;;;;;;;;;-5.91;59.33;95881.94;6297850;28;19974;-68
2023/01/06 09:03:27;;;;;;;;;;;;;;;-6.18;58.49;95873.00;6298193;28;19925;-68
2023/01/06 09:06:30;;;;;;;;;;;;;;;-6.27;60.18;95873.16;6298293;28;19924;-69
2023/01/06 09:09:34;;;;;;;;;;;;;;;-6.16;59.97;95866.16;6298219;28;19924;-68
2023/01/06 09:12:37;;;;;;;;;;;;;;;-6.31;60.03;95866.41;6297542;28;20378;-68
2023/01/06 09:15:40;;;;;;;;;;;;;;;-6.50;60.66;95860.72;6298096;28;20385;-67
2023/01/06 09:18:49;;;;;;;;;;;;;;;-6.53;60.93;95871.00;6298066;28;19924;-68
2023/01/06 09:21:50;;;;;;;;;;;;;;;-6.87;61.18;95856.13;6296168;28;20409;-68
2023/01/06 09:24:53;;;;;;;;;;;;;;;-6.80;62.21;95851.75;6297928;28;20364;-69
2023/01/06 09:27:58;;;;;;;;;;;;;;;-6.94;61.58;95851.09;6297091;28;20421;-67
2023/01/06 09:31:01;;;;;;;;;;;;;;;-6.62;60.94;95850.66;6297584;28;19928;-68
2023/01/06 09:34:02;;;;;;;;;;;;;;;-6.90;60.91;95853.59;6296863;28;19947;-67
2023/01/06 09:37:05;;;;;;;;;;;;;;;-6.94;62.08;95841.69;6297594;28;19931;-68
2023/01/06 09:40:08;;;;;;;;;;;;;;;-6.91;60.86;95844.22;6297270;28;19924;-68
2023/01/06 09:43:27;;;;;;;;;;;;;;;-7.09;61.79;95844.47;6297491;28;19931;-69
2023/01/06 09:46:30;;;;;;;;;;;;;;;-7.27;61.48;95843.84;6297259;28;19925;-69
2023/01/06 09:49:57;;;;;;;;;;;;;;;-7.30;62.18;95841.31;6296067;28;19924;-68
2023/01/06 09:53:14;;;;;;;;;;;;;;;-7.20;61.44;95833.53;6292183;28;19931;-69
2023/01/06 09:56:21;;;;;;;;;;;;;;;-7.23;61.08;95842.91;6297209;28;20353;-69
2023/01/06 09:59:29;;;;;;;;;;;;;;;-7.32;61.92;95844.75;6279432;28;19925;-68
2023/01/06 10:02:38;;;;;;;;;;;;;;;-7.41;61.22;95844.88;6297036;28;20430;-69
2023/01/06 10:05:38;;;;;;;;;;;;;;;-7.43;61.84;95847.41;6296901;28;20301;-68
2023/01/06 10:08:54;;;;;;;;;;;;;;;-7.51;62.41;95847.50;6296774;28;19924;-69
2023/01/06 10:11:55;;;;;;;;;;;;;;;-7.74;62.81;95844.34;6296081;28;19924;-68
2023/01/06 10:15:04;;;;;;;;;;;;;;;-7.58;61.48;95832.28;6277893;28;19932;-69
2023/01/06 10:18:26;;;;;;;;;;;;;;;-7.93;62.78;95836.84;6295999;28;19924;-68
2023/01/06 10:21:32;;;;;;;;;;;;;;;-7.80;62.98;95845.25;6296121;28;19924;-67
2023/01/06 10:24:45;;;;;;;;;;;;;;;-7.69;62.65;95838.34;6296650;28;20378;-68
2023/01/06 10:27:53;;;;;;;;;;;;;;;-7.79;62.53;95834.16;6278394;28;19924;-68
2023/01/06 10:30:55;;;;;;;;;;;;;;;-7.93;63.71;95818.13;6295445;28;19925;-68
2023/01/06 10:33:57;;;;;;;;;;;;;;;-7.58;63.27;95809.28;6295627;28;20459;-69
2023/01/06 10:37:09;;;;;;;;;;;;;;;-7.49;63.01;95809.16;6295219;28;19932;-69
2023/01/06 10:40:17;;;;;;;;;;;;;;;-7.77;63.82;95812.03;6296382;28;19924;-69
2023/01/06 10:43:22;;;;;;;;;;;;;;;-7.99;64.11;95802.88;6296355;28;19998;-68
2023/01/06 10:46:27;;;;;;;;;;;;;;;-8.15;65.39;95792.84;6296233;28;19925;-68
2023/01/06 10:49:29;;;;;;;;;;;;;;;-7.86;65.53;95799.34;6295351;28;20005;-68
2023/01/06 10:52:30;;;;;;;;;;;;;;;-7.85;65.47;95790.81;6294905;28;19924;-69
2023/01/06 10:55:37;;;;;;;;;;;;;;;-7.99;65.62;95787.56;6295865;28;20382;-68
2023/01/06 10:58:48;;;;;;;;;;;;;;;-8.01;66.19;95771.41;6295953;28;20019;-68
2023/01/06 11:01:53;;;;;;;;;;;;;;;-8.02;65.66;95752.72;6295873;28;19928;-69
2023/01/06 11:04:59;;;;;;;;;;;;;;;-8.00;67.02;95748.44;6296032;28;19924;-68
2023/01/06 11:08:01;;;;;;;;;;;;;;;-8.05;66.37;95751.91;6295976;28;19924;-69
2023/01/06 11:11:07;;;;;;;;;;;;;;;-8.09;66.20;95740.03;6295611;28;20023;-68
2023/01/06 11:14:14;;;;;;;;;;;;;;;-7.98;66.57;95743.31;6295706;28;19978;-68
2023/01/06 11:17:20;;;;;;;;;;;;;;;-8.14;67.51;95725.59;6294954;28;19931;-69
2023/01/06 11:20:21;;;;;;;;;;;;;;;-8.19;67.34;95735.00;6295473;28;19931;-68
2023/01/06 11:23:25;;;;;;;;;;;;;;;-7.84;67.83;95731.25;6281216;28;19924;-68
2023/01/06 11:26:42;;;;;;;;;;;;;;;-7.95;67.71;95725.44;6300673;28;20405;-68
2023/01/06 11:29:46;;;;;;;;;;;;;;;-7.93;68.18;95721.13;6300592;28;19925;-68
2023/01/06 11:32:50;;;;;;;;;;;;;;;-7.88;68.80;95729.59;6299966;28;19992;-67
2023/01/06 11:35:54;;;;;;;;;;;;;;;-8.13;69.24;95740.06;6281981;28;19930;-67
2023/01/06 11:39:01;;;;;;;;;;;;;;;-8.26;70.13;95723.19;6299654;28;20405;-69
2023/01/06 11:42:13;;;;;;;;;;;;;;;-8.27;70.33;95726.59;6300369;28;19924;-68
2023/01/06 11:45:35;;;;;;;;;;;;;;;-8.11;70.74;95701.75;6300806;28;19953;-68
2023/01/06 11:48:46;;;;;;;;;;;;;;;-8.26;70.82;95707.88;6299833;28;20413;-69
2023/01/06 11:51:48;;;;;;;;;;;;;;;-8.13;70.66;95703.47;6299206;28;19936;-67
2023/01/06 11:54:57;;;;;;;;;;;;;;;-8.21;70.61;95700.16;6299996;28;19924;-68
2023/01/06 11:58:27;;;;;;;;;;;;;;;-8.16;70.48;95689.03;6300212;28;19924;-70
2023/01/06 12:01:31;;;;;;;;;;;;;;;-8.16;71.66;95694.16;6296749;28;19924;-68
2023/01/06 12:04:37;;;;;;;;;;;;;;;-8.22;71.57;95689.13;6298915;28;20405;-68
2023/01/06 12:07:50;;;;;;;;;;;;;;;-8.26;72.12;95672.16;6299866;28;19924;-68
2023/01/06 12:10:58;;;;;;;;;;;;;;;-8.10;72.59;95677.91;6281045;28;19967;-68
2023/01/06 12:13:59;;;;;;;;;;;;;;;-7.95;72.77;95667.53;6298441;28;19924;-68
2023/01/06 12:17:20;;;;;;;;;;;;;;;-8.05;72.25;95673.63;6298953;28;19931;-68
2023/01/06 12:20:25;;;;;;;;;;;;;;;-8.06;73.18;95678.75;6299372;28;19924;-68
2023/01/06 12:23:34;;;;;;;;;;;;;;;-8.04;73.12;95666.78;6281353;28;19935;-67
2023/01/06 12:26:36;;;;;;;;;;;;;;;-7.87;73.16;95654.66;6298333;28;19920;-68
2023/01/06 12:29:37;;;;;;;;;;;;;;;-8.02;73.58;95639.56;6297174;28;19936;-68
2023/01/06 12:32:42;;;;;;;;;;;;;;;-7.89;73.68;95641.09;6298694;28;20023;-67
2023/01/06 12:35:48;;;;;;;;;;;;;;;-7.73;73.25;95645.16;6297798;28;19927;-69
2023/01/06 12:38:53;;;;;;;;;;;;;;;-7.73;72.74;95631.50;6298346;28;19924;-68
2023/01/06 12:42:02;;;;;;;;;;;;;;;-7.85;73.11;95624.84;6299030;28;20003;-67
2023/01/06 12:45:13;;;;;;;;;;;;;;;-7.60;73.72;95615.16;6297776;28;19924;-68
2023/01/06 12:48:22;;;;;;;;;;;;;;;-7.60;73.54;95601.53;6299127;28;20385;-67
2023/01/06 12:51:57;;;;;;;;;;;;;;;-7.52;73.48;95599.72;6298817;28;19924;-69
2023/01/06 12:55:01;;;;;;;;;;;;;;;-7.46;72.61;95586.84;6270183;28;20038;-68
2023/01/06 12:58:13;;;;;;;;;;;;;;;-7.51;73.50;95571.56;6323556;28;20019;-68
2023/01/06 13:01:27;;;;;;;;;;;;;;;-7.46;73.42;95571.53;6323582;28;19928;-68
2023/01/06 13:04:34;;;;;;;;;;;;;;;-7.52;74.19;95561.41;6323060;28;20060;-68
2023/01/06 13:07:45;;;;;;;;;;;;;;;-7.45;73.80;95556.16;6323235;28;19930;-67
2023/01/06 13:11:07;;;;;;;;;;;;;;;-7.66;74.57;95559.06;6323085;28;20386;-67
2023/01/06 13:14:27;;;;;;;;;;;;;;;-7.38;74.38;95563.75;6323093;28;20594;-68
2023/01/06 13:17:59;;;;;;;;;;;;;;;-7.51;74.78;95555.41;6323152;28;19924;-68
2023/01/06 13:21:03;;;;;;;;;;;;;;;-7.39;75.43;95544.97;6309484;28;19924;-67
2023/01/06 13:24:18;;;;;;;;;;;;;;;-7.40;75.84;95533.09;6322686;28;19930;-68
2023/01/06 13:27:19;;;;;;;;;;;;;;;-7.40;75.55;95534.81;6322598;28;19923;-68
2023/01/06 13:30:52;;;;;;;;;;;;;;;-7.28;75.99;95527.75;6322806;28;19931;-69
2023/01/06 13:34:25;;;;;;;;;;;;;;;-7.32;75.78;95528.69;6278802;28;19924;-68
2023/01/06 13:37:36;;;;;;;;;;;;;;;-7.09;76.60;95517.22;6322879;28;19924;-68
2023/01/06 13:40:40;;;;;;;;;;;;;;;-6.94;76.30;95513.53;6322314;28;19932;-68
2023/01/06 13:43:42;;;;;;;;;;;;;;;-7.01;76.14;95507.72;6321391;28;19924;-68
2023/01/06 13:46:47;;;;;;;;;;;;;;;-7.04;76.00;95512.88;6322215;28;19947;-68
2023/01/06 13:49:49;;;;;;;;;;;;;;;-6.88;76.06;95506.63;6322265;28;19923;-68
2023/01/06 13:52:50;;;;;;;;;;;;;;;-6.93;76.84;95502.47;6318485;28;20388;-69
2023/01/06 13:56:29;;;;;;;;;;;;;;;-6.90;76.57;95489.63;6296044;28;19932;-69
2023/01/06 13:59:46;;;;;;;;;;;;;;;-6.74;76.60;95482.47;6171295;28;20332;-69
2023/01/06 14:02:50;;;;;;;;;;;;;;;-6.63;76.68;95480.53;6179213;28;19963;-68
2023/01/06 14:05:56;;;;;;;;;;;;;;;-6.89;76.57;95479.34;6296851;28;19947;-68
2023/01/06 14:08:58;;;;;;;;;;;;;;;-6.86;77.58;95479.28;6295652;28;20393;-69
2023/01/06 14:12:07;;;;;;;;;;;;;;;-6.80;77.44;95468.94;6296648;28;19932;-68
2023/01/06 14:15:18;;;;;;;;;;;;;;;-6.46;77.68;95452.88;6277342;28;20065;-69
2023/01/06 14:18:31;;;;;;;;;;;;;;;-6.46;77.17;95458.00;6279137;28;20322;-69
2023/01/06 14:21:32;;;;;;;;;;;;;;;-6.39;76.59;95444.22;6278713;28;19952;-67
2023/01/06 14:24:42;;;;;;;;;;;;;;;-6.51;76.94;95429.16;6296358;28;20393;-68
2023/01/06 14:27:45;;;;;;;;;;;;;;;-6.41;77.61;95428.03;6296308;28;19924;-69
2023/01/06 14:30:50;;;;;;;;;;;;;;;-6.25;77.57;95422.59;6276266;28;19933;-68
2023/01/06 14:33:59;;;;;;;;;;;;;;;-6.19;76.40;95409.66;6296072;28;20073;-68
2023/01/06 14:37:03;;;;;;;;;;;;;;;-6.32;76.95;95403.97;6296070;28;19925;-69
2023/01/06 14:40:05;;;;;;;;;;;;;;;-6.23;77.17;95402.91;6277533;28;20030;-68
2023/01/06 14:43:33;;;;;;;;;;;;;;;-6.11;76.50;95387.28;6296110;28;19924;-68
2023/01/06 14:46:57;;;;;;;;;;;;;;;-6.34;76.79;95383.53;6275492;28;20531;-68
2023/01/06 14:50:03;;;;;;;;;;;;;;;-6.49;77.87;95365.97;6295448;28;20298;-69
2023/01/06 14:53:19;;;;;;;;;;;;;;;-6.24;77.85;95355.16;6295827;28;19924;-68
2023/01/06 14:56:22;;;;;;;;;;;;;;;-6.29;77.46;95351.88;6277526;28;20022;-69
2023/01/06 14:59:24;;;;;;;;;;;;;;;-6.41;77.97;95338.47;6295746;28;19933;-68
2023/01/06 15:02:28;;;;;;;;;;;;;;;-6.37;78.45;95331.56;6295946;28;19924;-68
2023/01/06 15:05:35;;;;;;;;;;;;;;;-6.19;78.67;95322.63;6295801;28;20398;-69
2023/01/06 15:08:36;;;;;;;;;;;;;;;-6.14;78.40;95320.78;6295975;28;19924;-69
2023/01/06 15:11:41;;;;;;;;;;;;;;;-5.96;77.81;95310.06;6296021;28;20015;-69
2023/01/06 15:14:47;;;;;;;;;;;;;;;-5.96;77.46;95312.63;6295260;28;19946;-68
2023/01/06 15:17:54;;;;;;;;;;;;;;;-5.90;77.76;95302.19;6295524;28;20386;-68
2023/01/06 15:20:57;;;;;;;;;;;;;;;-6.03;78.08;95298.28;6295220;28;19930;-68
2023/01/06 15:23:58;;;;;;;;;;;;;;;-5.74;78.47;95291.56;6277576;28;20022;-68
2023/01/06 15:27:04;;;;;;;;;;;;;;;-5.67;77.77;95280.25;6295635;28;19930;-69
2023/01/06 15:30:16;;;;;;;;;;;;;;;-5.84;77.85;95269.63;6295641;28;19982;-69
2023/01/06 15:33:21;;;;;;;;;;;;;;;-5.70;77.83;95259.84;6295596;28;19924;-69
2023/01/06 15:36:25;;;;;;;;;;;;;;;-5.82;78.01;95265.31;6294720;28;19924;-68
2023/01/06 15:39:30;;;;;;;;;;;;;;;-5.76;77.79;95252.31;6294563;28;19924;-68
2023/01/06 15:42:31;;;;;;;;;;;;;;;-5.75;78.18;95244.59;6294794;28;20009;-68
2023/01/06 15:45:38;;;;;;;;;;;;;;;-5.54;78.37;95234.66;6295141;28;20325;-68
2023/01/06 15:48:45;;;;;;;;;;;;;;;-5.45;77.74;95224.97;6294158;28;19920;-68
2023/01/06 15:51:54;;;;;;;;;;;;;;;-5.58;77.73;95228.75;6293740;28;20406;-69
2023/01/06 15:54:59;;;;;;;;;;;;;;;-5.55;77.93;95217.56;6296969;28;20313;-68
2023/01/06 15:58:03;;;;;;;;;;;;;;;-5.38;78.23;95211.97;6293916;28;20009;-68
2023/01/06 16:01:07;;;;;;;;;;;;;;;-5.23;77.82;95199.53;6294857;28;19924;-69
2023/01/06 16:04:13;;;;;;;;;;;;;;;-5.25;78.10;95188.47;6294993;28;19924;-68
2023/01/06 16:07:33;;;;;;;;;;;;;;;-5.09;77.78;95191.44;6294620;28;19924;-68
2023/01/06 16:10:37;;;;;;;;;;;;;;;-5.14;78.54;95177.91;6299548;28;19931;-68
2023/01/06 16:13:38;;;;;;;;;;;;;;;-5.14;78.80;95177.91;6280685;28;20082;-68
2023/01/06 16:16:40;;;;;;;;;;;;;;;-5.06;79.08;95159.72;6298679;28;19924;-68
2023/01/06 16:19:45;;;;;;;;;;;;;;;-4.99;78.94;95156.88;6298607;28;20568;-68